createdAt,value
2023-05-21T00:00:28.724Z,5.47
2023-05-21T00:03:02.044Z,4.90
2023-05-21T00:05:35.107Z,5.13
2023-05-21T00:08:08.781Z,5.53
2023-05-21T00:10:41.596Z,5.97
2023-05-21T00:13:15.280Z,5.45
2023-05-21T00:15:48.773Z,4.80
2023-05-21T00:18:22.513Z,5.63
2023-05-21T00:20:55.387Z,5.32
2023-05-21T00:23:28.365Z,5.93
2023-05-21T00:26:01.428Z,6.20
2023-05-21T00:28:34.629Z,6.47
2023-05-21T00:31:07.709Z,6.68
2023-05-21T00:33:41.245Z,7.03
2023-05-21T00:36:14.538Z,7.40
2023-05-21T00:38:47.765Z,5.57
2023-05-21T00:41:22.694Z,5.90
2023-05-21T00:43:56.356Z,6.85
2023-05-21T00:46:29.542Z,5.90
2023-05-21T00:49:02.673Z,6.70
2023-05-21T00:51:36.162Z,7.67
2023-05-21T00:54:10.212Z,6.70
2023-05-21T00:56:43.098Z,6.23
2023-05-21T00:59:16.769Z,6.20
2023-05-21T01:01:55.819Z,6.00
2023-05-21T01:04:29.048Z,6.07
2023-05-21T01:07:02.157Z,7.00
2023-05-21T01:09:35.212Z,6.90
2023-05-21T01:12:09.082Z,5.37
2023-05-21T01:14:42.652Z,6.20
2023-05-21T01:17:16.536Z,7.07
2023-05-21T01:19:50.651Z,7.50
2023-05-21T01:22:24.858Z,6.25
2023-05-21T01:24:57.882Z,7.73
2023-05-21T01:27:30.942Z,7.40
2023-05-21T01:30:04.883Z,7.28
2023-05-21T01:33:03.074Z,6.60
2023-05-21T01:35:42.054Z,6.70
2023-05-21T01:38:23.452Z,7.43
2023-05-21T01:41:05.788Z,7.20
2023-05-21T01:43:42.152Z,6.53
2023-05-21T01:46:19.412Z,5.87
2023-05-21T01:48:54.424Z,8.67
2023-05-21T01:51:28.189Z,7.97
2023-05-21T01:54:02.051Z,7.10
2023-05-21T01:56:37.280Z,7.97
2023-05-21T01:59:10.879Z,7.97
2023-05-21T02:01:44.249Z,6.73
2023-05-21T02:04:17.403Z,7.27
2023-05-21T02:06:50.423Z,7.13
2023-05-21T02:09:24.815Z,8.03
2023-05-21T02:11:58.278Z,5.73
2023-05-21T02:14:33.736Z,7.30
2023-05-21T02:17:08.144Z,8.70
2023-05-21T02:19:42.088Z,6.03
2023-05-21T02:22:15.078Z,7.83
2023-05-21T02:24:47.880Z,7.03
2023-05-21T02:27:21.096Z,8.73
2023-05-21T02:29:53.870Z,7.77
2023-05-21T02:32:27.123Z,7.22
2023-05-21T02:35:01.870Z,6.67
2023-05-21T02:37:35.599Z,6.73
2023-05-21T02:40:10.116Z,7.77
2023-05-21T02:42:43.303Z,9.83
2023-05-21T02:45:20.910Z,9.30
2023-05-21T02:47:54.091Z,6.47
2023-05-21T02:50:26.952Z,7.07
2023-05-21T02:53:03.731Z,9.23
2023-05-21T02:55:37.341Z,9.30
2023-05-21T02:58:13.789Z,7.70
2023-05-21T03:00:47.012Z,8.50
2023-05-21T03:03:20.363Z,8.47
2023-05-21T03:05:53.761Z,6.70
2023-05-21T03:08:26.915Z,7.80
2023-05-21T03:10:59.775Z,7.47
2023-05-21T03:13:32.903Z,8.53
2023-05-21T03:16:06.892Z,6.73
2023-05-21T03:18:39.986Z,7.67
2023-05-21T03:21:15.860Z,7.87
2023-05-21T03:23:49.700Z,10.02
2023-05-21T03:26:23.917Z,8.63
2023-05-21T03:28:57.501Z,8.47
2023-05-21T03:31:31.270Z,9.67
2023-05-21T03:34:11.715Z,8.30
2023-05-21T03:36:44.492Z,8.30
2023-05-21T03:39:17.667Z,9.90
2023-05-21T03:41:51.336Z,8.67
2023-05-21T03:44:35.396Z,11.93
2023-05-21T03:47:21.890Z,7.23
2023-05-21T03:49:55.915Z,7.30
2023-05-21T03:52:28.913Z,7.10
2023-05-21T03:55:03.007Z,8.63
2023-05-21T03:57:37.615Z,7.33
2023-05-21T04:00:14.002Z,7.57
2023-05-21T04:02:50.001Z,6.63
2023-05-21T04:05:23.799Z,7.33
2023-05-21T04:07:58.744Z,7.73
2023-05-21T04:10:31.968Z,9.23
2023-05-21T04:13:04.845Z,9.20
2023-05-21T04:15:38.855Z,7.53
2023-05-21T04:18:13.761Z,5.97
2023-05-21T04:20:47.060Z,9.53
2023-05-21T04:23:19.953Z,11.30
2023-05-21T04:25:54.829Z,6.97
2023-05-21T04:28:29.362Z,8.30
2023-05-21T04:31:06.159Z,8.77
2023-05-21T04:33:42.163Z,7.23
2023-05-21T04:36:17.310Z,7.87
2023-05-21T04:38:51.554Z,7.20
2023-05-21T04:41:24.633Z,8.57
2023-05-21T04:43:58.676Z,7.90
2023-05-21T04:46:35.736Z,9.97
2023-05-21T04:49:10.150Z,8.43
2023-05-21T04:51:43.069Z,9.50
2023-05-21T04:54:16.228Z,7.53
2023-05-21T04:56:49.277Z,7.43
2023-05-21T04:59:23.632Z,9.97
2023-05-21T05:01:56.769Z,9.50
2023-05-21T05:04:29.822Z,9.37
2023-05-21T05:07:03.069Z,8.77
2023-05-21T05:09:35.968Z,10.93
2023-05-21T05:12:09.894Z,11.70
2023-05-21T05:14:42.887Z,9.53
2023-05-21T05:17:15.864Z,9.13
2023-05-21T05:19:49.842Z,8.00
2023-05-21T05:22:23.553Z,10.13
2023-05-21T05:24:57.032Z,8.13
2023-05-21T05:27:30.867Z,8.77
2023-05-21T05:30:04.284Z,8.55
2023-05-21T05:32:38.405Z,9.63
2023-05-21T05:35:12.298Z,9.20
2023-05-21T05:37:45.557Z,9.53
2023-05-21T05:40:18.576Z,10.63
2023-05-21T05:42:52.988Z,9.83
2023-05-21T05:45:27.091Z,10.77
2023-05-21T05:48:00.842Z,11.70
2023-05-21T05:50:33.964Z,11.85
2023-05-21T05:53:07.579Z,9.02
2023-05-21T05:55:40.762Z,10.57
2023-05-21T05:58:13.865Z,10.73
2023-05-21T06:01:09.361Z,9.32
2023-05-21T06:03:42.246Z,10.90
2023-05-21T06:06:19.182Z,9.90
2023-05-21T06:08:52.279Z,10.20
2023-05-21T06:11:26.514Z,11.55
2023-05-21T06:14:01.785Z,10.77
2023-05-21T06:16:35.162Z,11.75
2023-05-21T06:19:09.251Z,10.93
2023-05-21T06:21:42.384Z,10.63
2023-05-21T06:24:17.467Z,11.95
2023-05-21T06:26:50.604Z,8.82
2023-05-21T06:29:23.569Z,12.43
2023-05-21T06:31:56.883Z,10.15
2023-05-21T06:34:30.696Z,10.20
2023-05-21T06:37:03.895Z,10.20
2023-05-21T06:39:36.834Z,12.18
2023-05-21T06:42:09.803Z,9.13
2023-05-21T06:44:59.602Z,12.02
2023-05-21T06:47:36.317Z,10.00
2023-05-21T06:50:09.578Z,10.02
2023-05-21T06:52:43.983Z,9.52
2023-05-21T06:55:17.299Z,8.18
2023-05-21T06:58:11.794Z,9.10
2023-05-21T07:00:45.044Z,13.00
2023-05-21T07:03:18.304Z,10.65
2023-05-21T07:05:53.187Z,9.98
2023-05-21T07:08:27.221Z,9.55
2023-05-21T07:11:02.650Z,9.75
2023-05-21T07:13:36.832Z,9.35
2023-05-21T07:16:09.617Z,8.27
2023-05-21T07:18:44.450Z,10.50
2023-05-21T07:21:18.627Z,10.40
2023-05-21T07:23:54.123Z,9.48
2023-05-21T07:26:26.909Z,9.10
2023-05-21T07:28:59.733Z,10.02
2023-05-21T07:31:33.075Z,8.80
2023-05-21T07:34:06.579Z,10.32
2023-05-21T07:36:39.589Z,9.93
2023-05-21T07:39:12.876Z,8.95
2023-05-21T07:41:45.866Z,8.05
2023-05-21T07:44:18.979Z,8.98
2023-05-21T07:46:52.455Z,10.75
2023-05-21T07:49:25.785Z,9.43
2023-05-21T07:51:58.947Z,8.52
2023-05-21T07:54:32.091Z,7.82
2023-05-21T07:57:05.520Z,9.80
2023-05-21T08:00:02.735Z,8.05
2023-05-21T08:02:37.528Z,8.30
2023-05-21T08:05:10.511Z,9.77
2023-05-21T08:07:43.702Z,9.48
2023-05-21T08:10:19.099Z,10.27
2023-05-21T08:12:53.176Z,11.05
2023-05-21T08:15:26.834Z,10.43
2023-05-21T08:18:00.209Z,8.80
2023-05-21T08:20:34.143Z,10.70
2023-05-21T08:23:07.416Z,8.32
2023-05-21T08:25:46.867Z,8.90
2023-05-21T08:28:22.352Z,9.40
2023-05-21T08:30:55.517Z,9.48
2023-05-21T08:33:30.113Z,8.55
2023-05-21T08:36:05.196Z,9.02
2023-05-21T08:38:42.476Z,9.02
2023-05-21T08:41:26.386Z,9.68
2023-05-21T08:44:02.160Z,10.73
2023-05-21T08:46:37.420Z,8.43
2023-05-21T08:49:14.291Z,7.85
2023-05-21T08:51:48.536Z,8.88
2023-05-21T08:54:22.606Z,7.57
2023-05-21T08:56:56.698Z,9.52
2023-05-21T08:59:30.807Z,11.23
2023-05-21T09:02:05.134Z,9.15
2023-05-21T09:04:42.475Z,9.05
2023-05-21T09:07:17.190Z,9.00
2023-05-21T09:10:12.273Z,9.77
2023-05-21T09:12:45.719Z,9.48
2023-05-21T09:15:18.907Z,9.07
2023-05-21T09:17:51.818Z,9.05
2023-05-21T09:20:39.249Z,8.77
2023-05-21T09:23:16.985Z,9.68
2023-05-21T09:25:52.119Z,8.77
2023-05-21T09:28:36.207Z,11.43
2023-05-21T09:31:09.293Z,8.43
2023-05-21T09:33:48.870Z,9.13
2023-05-21T09:36:22.757Z,7.97
2023-05-21T09:38:55.683Z,9.30
2023-05-21T09:41:33.762Z,9.13
2023-05-21T09:44:06.716Z,8.85
2023-05-21T09:46:41.833Z,8.55
2023-05-21T09:49:26.422Z,8.90
2023-05-21T09:52:00.010Z,10.07
2023-05-21T09:54:34.219Z,8.95
2023-05-21T09:57:07.145Z,7.30
2023-05-21T09:59:39.984Z,9.05
2023-05-21T10:02:21.457Z,8.75
2023-05-21T10:04:58.067Z,8.38
2023-05-21T10:07:31.253Z,8.65
2023-05-21T10:10:06.859Z,11.07
2023-05-21T10:12:46.216Z,7.95
2023-05-21T10:15:24.034Z,8.40
2023-05-21T10:17:57.669Z,10.18
2023-05-21T10:20:31.278Z,9.95
2023-05-21T10:23:04.817Z,12.95
2023-05-21T10:25:37.950Z,17.35
2023-05-21T10:28:11.666Z,11.68
2023-05-21T10:30:45.442Z,9.75
2023-05-21T10:33:18.594Z,10.20
2023-05-21T10:35:53.313Z,11.45
2023-05-21T10:38:27.661Z,12.15
2023-05-21T10:41:03.060Z,10.52
2023-05-21T10:43:38.882Z,8.15
2023-05-21T10:46:30.132Z,8.20
2023-05-21T10:49:30.659Z,8.23
2023-05-21T10:52:30.645Z,8.48
2023-05-21T10:55:51.426Z,8.48
2023-05-21T10:58:42.890Z,8.27
2023-05-21T11:01:19.299Z,9.95
2023-05-21T11:03:52.189Z,7.93
2023-05-21T11:06:28.575Z,7.43
2023-05-21T11:09:11.615Z,9.32
2023-05-21T11:11:51.656Z,9.32
2023-05-21T11:14:40.754Z,8.13
2023-05-21T11:17:16.252Z,6.95
2023-05-21T11:19:51.281Z,7.38
2023-05-21T11:22:25.842Z,7.88
2023-05-21T11:25:01.993Z,12.13
2023-05-21T11:27:37.291Z,15.65
2023-05-21T11:30:14.751Z,10.93
2023-05-21T11:33:12.488Z,9.15
2023-05-21T11:35:45.470Z,7.03
2023-05-21T11:38:18.634Z,6.55
2023-05-21T11:40:55.464Z,8.73
2023-05-21T11:43:28.556Z,7.30
2023-05-21T11:46:02.245Z,6.28
2023-05-21T11:48:37.817Z,7.00
2023-05-21T11:51:10.765Z,6.13
2023-05-21T11:53:44.370Z,6.15
2023-05-21T11:56:18.298Z,6.90
2023-05-21T11:58:55.996Z,7.03
2023-05-21T12:01:31.879Z,6.10
2023-05-21T12:04:05.765Z,6.97
2023-05-21T12:06:42.764Z,6.65
2023-05-21T12:09:15.610Z,6.95
2023-05-21T12:11:48.401Z,5.60
2023-05-21T12:14:21.745Z,6.32
2023-05-21T12:16:54.767Z,7.80
2023-05-21T12:19:28.468Z,6.85
2023-05-21T12:22:05.179Z,6.07
2023-05-21T12:24:39.348Z,6.45
2023-05-21T12:27:13.645Z,6.18
2023-05-21T12:29:48.845Z,6.93
2023-05-21T12:32:24.623Z,8.50
2023-05-21T12:34:57.454Z,7.53
2023-05-21T12:37:32.575Z,7.15
2023-05-21T12:40:09.931Z,7.85
2023-05-21T12:42:44.476Z,6.60
2023-05-21T12:45:19.186Z,6.75
2023-05-21T12:47:56.352Z,6.80
2023-05-21T12:50:29.330Z,6.22
2023-05-21T12:53:02.164Z,5.00
2023-05-21T12:55:36.095Z,5.85
2023-05-21T12:58:13.882Z,5.88
2023-05-21T13:00:47.021Z,5.38
2023-05-21T13:03:23.492Z,7.18
2023-05-21T13:05:59.980Z,5.03
2023-05-21T13:08:36.440Z,6.45
2023-05-21T13:11:09.238Z,6.13
2023-05-21T13:13:42.220Z,6.55
2023-05-21T13:16:15.054Z,5.68
2023-05-21T13:18:47.907Z,5.38
2023-05-21T13:21:20.861Z,5.32
2023-05-21T13:23:53.610Z,7.53
2023-05-21T13:26:26.775Z,5.88
2023-05-21T13:28:59.755Z,4.75
2023-05-21T13:31:32.529Z,6.10
2023-05-21T13:34:05.645Z,5.60
2023-05-21T13:36:39.221Z,5.50
2023-05-21T13:39:12.665Z,7.05
2023-05-21T13:41:45.677Z,6.18
2023-05-21T13:44:18.535Z,5.80
2023-05-21T13:46:51.414Z,6.00
2023-05-21T13:49:24.279Z,5.15
2023-05-21T13:51:58.278Z,5.55
2023-05-21T13:54:31.601Z,4.65
2023-05-21T13:57:04.863Z,4.03
2023-05-21T13:59:37.830Z,5.20
2023-05-21T14:02:11.304Z,7.20
2023-05-21T14:04:46.686Z,6.40
2023-05-21T14:07:19.626Z,5.32
2023-05-21T14:09:52.710Z,5.57
2023-05-21T14:12:26.856Z,4.38
2023-05-21T14:14:59.605Z,5.53
2023-05-21T14:17:32.562Z,6.47
2023-05-21T14:20:07.219Z,8.23
2023-05-21T14:22:40.078Z,5.63
2023-05-21T14:25:13.280Z,5.45
2023-05-21T14:27:46.071Z,7.90
2023-05-21T14:30:19.062Z,5.43
2023-05-21T14:32:51.940Z,6.53
2023-05-21T14:35:25.050Z,4.70
2023-05-21T14:37:57.816Z,4.30
2023-05-21T14:40:30.570Z,5.65
2023-05-21T14:43:04.027Z,4.75
2023-05-21T14:45:37.123Z,4.90
2023-05-21T14:48:11.739Z,6.95
2023-05-21T14:50:44.961Z,6.03
2023-05-21T14:53:18.837Z,4.90
2023-05-21T14:55:51.813Z,5.95
2023-05-21T14:58:26.134Z,6.40
2023-05-21T15:00:59.387Z,6.22
2023-05-21T15:03:32.845Z,4.25
2023-05-21T15:06:05.974Z,5.70
2023-05-21T15:08:40.374Z,5.70
2023-05-21T15:11:14.869Z,8.77
2023-05-21T15:13:50.193Z,5.35
2023-05-21T15:16:23.211Z,6.03
2023-05-21T15:18:56.897Z,5.97
2023-05-21T15:21:29.826Z,7.65
2023-05-21T15:24:02.701Z,5.22
2023-05-21T15:26:35.565Z,5.05
2023-05-21T15:29:08.812Z,5.50
2023-05-21T15:31:42.503Z,4.45
2023-05-21T15:34:17.028Z,4.93
2023-05-21T15:36:50.046Z,4.97
2023-05-21T15:39:23.153Z,6.05
2023-05-21T15:41:56.085Z,5.15
2023-05-21T15:44:29.132Z,5.18
2023-05-21T15:47:02.283Z,5.88
2023-05-21T15:49:35.888Z,5.18
2023-05-21T15:52:08.732Z,6.03
2023-05-21T15:54:41.579Z,7.15
2023-05-21T15:57:14.368Z,6.63
2023-05-21T15:59:47.421Z,4.97
2023-05-21T16:02:20.478Z,5.22
2023-05-21T16:04:53.518Z,4.88
2023-05-21T16:07:26.721Z,4.82
2023-05-21T16:10:00.135Z,4.85
2023-05-21T16:12:33.284Z,6.90
2023-05-21T16:15:07.022Z,6.38
2023-05-21T16:17:39.855Z,4.75
2023-05-21T16:20:13.129Z,4.85
2023-05-21T16:22:45.852Z,5.00
2023-05-21T16:25:19.086Z,5.70
2023-05-21T16:27:52.229Z,5.60
2023-05-21T16:30:25.406Z,4.88
2023-05-21T16:32:58.624Z,4.63
2023-05-21T16:35:31.965Z,17.40
2023-05-21T16:38:04.755Z,5.47
2023-05-21T16:40:37.939Z,5.40
2023-05-21T16:43:10.873Z,5.55
2023-05-21T16:45:45.675Z,4.85
2023-05-21T16:48:19.049Z,6.25
2023-05-21T16:50:51.957Z,6.78
2023-05-21T16:53:25.438Z,5.32
2023-05-21T16:55:58.713Z,6.25
2023-05-21T16:58:33.507Z,7.88
2023-05-21T17:01:07.065Z,6.63
2023-05-21T17:03:43.097Z,4.93
2023-05-21T17:06:16.370Z,5.63
2023-05-21T17:08:49.470Z,5.43
2023-05-21T17:11:22.748Z,6.10
2023-05-21T17:13:55.748Z,5.05
2023-05-21T17:16:28.835Z,4.88
2023-05-21T17:19:01.832Z,5.45
2023-05-21T17:21:34.974Z,4.53
2023-05-21T17:24:08.310Z,5.82
2023-05-21T17:26:41.179Z,14.43
2023-05-21T17:29:14.515Z,10.48
2023-05-21T17:31:47.605Z,17.42
2023-05-21T17:34:21.375Z,6.90
2023-05-21T17:36:54.773Z,7.18
2023-05-21T17:39:29.169Z,6.40
2023-05-21T17:42:02.366Z,6.40
2023-05-21T17:44:35.260Z,5.30
2023-05-21T17:47:09.688Z,5.18
2023-05-21T17:49:42.719Z,10.05
2023-05-21T17:52:15.709Z,8.95
2023-05-21T17:54:48.761Z,13.85
2023-05-21T17:57:21.931Z,8.95
2023-05-21T17:59:55.670Z,5.93
2023-05-21T18:02:28.812Z,6.57
2023-05-21T18:05:01.747Z,9.70
2023-05-21T18:07:34.688Z,5.80
2023-05-21T18:10:08.298Z,7.30
2023-05-21T18:12:41.619Z,6.10
2023-05-21T18:15:15.326Z,8.60
2023-05-21T18:17:50.220Z,7.13
2023-05-21T18:20:23.090Z,8.25
2023-05-21T18:22:56.091Z,17.23
2023-05-21T18:25:29.129Z,15.77
2023-05-21T18:28:02.194Z,37.10
2023-05-21T18:30:35.923Z,40.80
2023-05-21T18:33:09.359Z,20.77
2023-05-21T18:35:44.074Z,9.50
2023-05-21T18:38:18.312Z,9.18
2023-05-21T18:40:51.384Z,17.27
2023-05-21T18:43:24.272Z,9.35
2023-05-21T18:45:57.140Z,7.85
2023-05-21T18:48:30.032Z,7.72
2023-05-21T18:51:04.666Z,7.95
2023-05-21T18:53:38.492Z,7.60
2023-05-21T18:56:11.243Z,10.25
2023-05-21T18:58:44.324Z,18.48
2023-05-21T19:01:18.417Z,33.92
2023-05-21T19:03:51.695Z,11.00
2023-05-21T19:06:25.591Z,23.00
2023-05-21T19:08:58.639Z,9.25
2023-05-21T19:11:34.526Z,9.85
2023-05-21T19:14:07.819Z,9.23
2023-05-21T19:16:40.912Z,7.22
2023-05-21T19:19:14.280Z,7.43
2023-05-21T19:21:47.420Z,6.70
2023-05-21T19:24:20.628Z,8.63
2023-05-21T19:26:53.470Z,7.57
2023-05-21T19:29:28.795Z,8.93
2023-05-21T19:32:01.849Z,6.78
2023-05-21T19:34:34.963Z,6.60
2023-05-21T19:37:08.357Z,7.22
2023-05-21T19:39:42.427Z,8.25
2023-05-21T19:42:16.035Z,7.78
2023-05-21T19:44:49.196Z,7.65
2023-05-21T19:47:22.800Z,7.57
2023-05-21T19:49:56.667Z,7.70
2023-05-21T19:52:29.609Z,8.70
2023-05-21T19:55:04.837Z,7.45
2023-05-21T19:57:37.946Z,7.32
2023-05-21T20:00:11.442Z,6.32
2023-05-21T20:02:47.049Z,6.40
2023-05-21T20:05:20.121Z,8.20
2023-05-21T20:07:52.933Z,6.88
2023-05-21T20:10:28.115Z,6.45
2023-05-21T20:13:01.107Z,8.38
2023-05-21T20:15:34.532Z,10.05
2023-05-21T20:18:07.586Z,7.47
2023-05-21T20:20:42.109Z,5.90
2023-05-21T20:23:15.516Z,6.53
2023-05-21T20:25:48.549Z,8.23
2023-05-21T20:28:23.230Z,6.05
2023-05-21T20:31:01.276Z,7.50
2023-05-21T20:33:39.364Z,6.97
2023-05-21T20:36:15.509Z,6.65
2023-05-21T20:38:48.564Z,7.20
2023-05-21T20:41:21.869Z,7.22
2023-05-21T20:43:55.475Z,8.73
2023-05-21T20:46:28.655Z,7.22
2023-05-21T20:49:01.683Z,7.50
2023-05-21T20:51:34.600Z,8.10
2023-05-21T20:54:07.877Z,7.43
2023-05-21T20:56:42.844Z,6.63
2023-05-21T20:59:16.573Z,6.53
2023-05-21T21:01:50.877Z,7.95
2023-05-21T21:04:25.720Z,8.10
2023-05-21T21:07:00.508Z,9.05
2023-05-21T21:09:34.081Z,8.00
2023-05-21T21:12:24.113Z,7.68
2023-05-21T21:14:58.863Z,8.55
2023-05-21T21:17:31.881Z,7.97
2023-05-21T21:20:08.016Z,7.07
2023-05-21T21:22:41.164Z,7.68
2023-05-21T21:25:14.483Z,8.32
2023-05-21T21:27:47.433Z,9.30
2023-05-21T21:30:20.573Z,7.93
2023-05-21T21:32:54.519Z,7.72
2023-05-21T21:35:27.347Z,7.78
2023-05-21T21:38:00.605Z,8.80
2023-05-21T21:40:33.592Z,10.13
2023-05-21T21:43:06.488Z,9.88
2023-05-21T21:45:39.561Z,7.78
2023-05-21T21:48:12.895Z,8.45
2023-05-21T21:50:46.210Z,9.07
2023-05-21T21:53:19.527Z,8.82
2023-05-21T21:55:53.229Z,9.63
2023-05-21T21:58:26.369Z,9.15
2023-05-21T22:00:59.535Z,8.48
2023-05-21T22:03:34.332Z,9.10
2023-05-21T22:06:07.463Z,9.48
2023-05-21T22:08:40.765Z,9.27
2023-05-21T22:11:13.808Z,8.85
2023-05-21T22:13:47.672Z,10.00
2023-05-21T22:16:25.120Z,9.25
2023-05-21T22:18:58.794Z,9.85
2023-05-21T22:21:32.975Z,10.07
2023-05-21T22:24:06.390Z,9.55
2023-05-21T22:26:40.234Z,10.70
2023-05-21T22:29:13.369Z,9.30
2023-05-21T22:31:46.249Z,10.35
2023-05-21T22:34:19.221Z,10.35
2023-05-21T22:36:52.403Z,10.27
2023-05-21T22:39:26.102Z,10.57
2023-05-21T22:41:59.704Z,12.48
2023-05-21T22:44:32.891Z,9.70
2023-05-21T22:47:06.590Z,10.45
2023-05-21T22:49:40.942Z,10.32
2023-05-21T22:52:14.755Z,11.55
2023-05-21T22:54:54.872Z,12.32
2023-05-21T22:57:27.973Z,10.65
2023-05-21T23:00:01.063Z,11.25
2023-05-21T23:02:34.062Z,12.38
2023-05-21T23:05:07.269Z,11.55
2023-05-21T23:07:41.264Z,13.50
2023-05-21T23:10:14.230Z,10.98
2023-05-21T23:12:47.035Z,9.48
2023-05-21T23:15:20.258Z,13.98
2023-05-21T23:17:53.008Z,10.68
2023-05-21T23:20:26.199Z,12.73
2023-05-21T23:22:58.982Z,11.82
2023-05-21T23:25:32.040Z,12.02
2023-05-21T23:28:05.068Z,13.00
2023-05-21T23:30:38.479Z,12.05
2023-05-21T23:33:11.785Z,11.63
2023-05-21T23:35:44.973Z,12.00
2023-05-21T23:38:17.790Z,13.15
2023-05-21T23:40:50.929Z,11.90
2023-05-21T23:43:24.020Z,12.35
2023-05-21T23:45:57.178Z,12.68
2023-05-21T23:48:30.154Z,11.93
2023-05-21T23:51:03.365Z,12.82
2023-05-21T23:53:36.225Z,12.98
2023-05-21T23:56:09.122Z,10.45
2023-05-21T23:58:41.994Z,11.93
